This is the latest recevied weather packets stored in our database for station/object DG2MCM-11. If no packets are shown the sender has not sent any weather packets the latest 1 day(s).
| Time | Temp. | Humidity | Pressure | Rain* | Wind** | Luminosity | Snow |
|---|---|---|---|---|---|---|---|
| 1778086676 | 10° C | 79% | 1009.3 hPa | 0 mm | - | - | - |
| 1778085472 | 9.44° C | 78% | 1009.7 hPa | 0 mm | - | - | - |
| 1778081322 | 11.11° C | 73% | 1008.2 hPa | 0 mm | - | - | - |
| 1778079517 | 12.22° C | 69% | 1007.6 hPa | 0 mm | - | - | - |
| 1778076509 | 16.11° C | 65% | 1005.4 hPa | 0 mm | - | - | - |
| 1778071697 | 14.44° C | 77% | 1006.4 hPa | 0 mm | - | - | - |
| 1778068688 | 17.22° C | 57% | 1004.3 hPa | 0 mm | - | - | - |
| 1778068086 | 18.33° C | 54% | 1004.1 hPa | 0 mm | - | - | - |
| 1778065069 | 19.44° C | 49% | 1004.2 hPa | 0 mm | - | - | - |
| 1778064467 | 20.56° C | 48% | 1003.8 hPa | 0 mm | - | - | - |
| 1778063324 | 23.89° C | 43% | 1002.9 hPa | 0 mm | - | - | - |
| 1778062722 | 26.11° C | 38% | 1002.6 hPa | 0 mm | - | - | - |
| 1778060316 | 23.33° C | 44% | 1003.9 hPa | 0 mm | - | - | - |
| 1778059714 | 18.89° C | 52% | 1005 hPa | 0 mm | - | - | - |
| 1778059113 | 18.33° C | 54% | 1005.3 hPa | 0 mm | - | - | - |
| 1778057909 | 17.22° C | 58% | 1005.4 hPa | 0 mm | - | - | - |
| 1778056706 | 17.78° C | 56% | 1005.6 hPa | 0 mm | - | - | - |
| 1778054299 | 15° C | 64% | 1006.2 hPa | 0 mm | - | - | - |
| 1778053096 | 14.44° C | 68% | 1006.5 hPa | 0 mm | - | - | - |
| 1778052494 | 13.89° C | 71% | 1006.5 hPa | 0 mm | - | - | - |
| 1778051892 | 12.78° C | 71% | 1006.9 hPa | 0 mm | - | - | - |
| 1778051290 | 13.33° C | 70% | 1006.8 hPa | 0 mm | - | - | - |
| 1778050688 | 12.78° C | 73% | 1007 hPa | 0 mm | - | - | - |
| 1778050087 | 12.22° C | 73% | 1007.4 hPa | 0 mm | - | - | - |
| 1778047679 | 11.11° C | 76% | 1007.8 hPa | 0 mm | - | - | - |
* Rain latest hour (hover to see other rain measurements)
** Current wind speed in m/s (hover to see current wind gust speed)